sensor_id;sensor_type;location;lat;lon;timestamp;P1;durP1;ratioP1;P2;durP2;ratioP2
16199;SDS011;8207;52.494;4.654;2024-01-30T00:02:22;14.57;;;8.38;;
16199;SDS011;8207;52.494;4.654;2024-01-30T00:04:47;14.80;;;8.20;;
16199;SDS011;8207;52.494;4.654;2024-01-30T00:07:13;15.25;;;9.10;;
16199;SDS011;8207;52.494;4.654;2024-01-30T00:09:38;13.40;;;8.17;;
16199;SDS011;8207;52.494;4.654;2024-01-30T00:12:04;13.85;;;8.13;;
16199;SDS011;8207;52.494;4.654;2024-01-30T00:14:30;14.23;;;7.88;;
16199;SDS011;8207;52.494;4.654;2024-01-30T00:16:55;14.13;;;7.67;;
16199;SDS011;8207;52.494;4.654;2024-01-30T00:19:20;14.43;;;7.90;;
16199;SDS011;8207;52.494;4.654;2024-01-30T00:21:45;12.80;;;7.73;;
16199;SDS011;8207;52.494;4.654;2024-01-30T00:24:10;12.33;;;7.70;;
16199;SDS011;8207;52.494;4.654;2024-01-30T00:26:36;14.82;;;8.05;;
16199;SDS011;8207;52.494;4.654;2024-01-30T00:29:01;14.00;;;7.93;;
16199;SDS011;8207;52.494;4.654;2024-01-30T00:31:27;13.20;;;7.25;;
16199;SDS011;8207;52.494;4.654;2024-01-30T00:33:52;12.93;;;7.35;;
16199;SDS011;8207;52.494;4.654;2024-01-30T00:36:17;11.83;;;7.77;;
16199;SDS011;8207;52.494;4.654;2024-01-30T00:38:42;12.73;;;7.20;;
16199;SDS011;8207;52.494;4.654;2024-01-30T00:41:08;11.83;;;7.30;;
16199;SDS011;8207;52.494;4.654;2024-01-30T00:43:33;12.43;;;7.28;;
16199;SDS011;8207;52.494;4.654;2024-01-30T00:45:58;12.17;;;7.60;;
16199;SDS011;8207;52.494;4.654;2024-01-30T00:48:24;11.70;;;7.05;;
16199;SDS011;8207;52.494;4.654;2024-01-30T00:50:49;12.03;;;7.20;;
16199;SDS011;8207;52.494;4.654;2024-01-30T00:53:14;11.32;;;6.78;;
16199;SDS011;8207;52.494;4.654;2024-01-30T00:55:40;13.77;;;7.60;;
16199;SDS011;8207;52.494;4.654;2024-01-30T00:58:05;12.03;;;7.43;;
16199;SDS011;8207;52.494;4.654;2024-01-30T01:00:30;12.43;;;6.57;;
16199;SDS011;8207;52.494;4.654;2024-01-30T01:02:57;12.88;;;7.22;;
16199;SDS011;8207;52.494;4.654;2024-01-30T01:05:22;11.18;;;6.70;;
16199;SDS011;8207;52.494;4.654;2024-01-30T01:07:47;11.70;;;6.83;;
16199;SDS011;8207;52.494;4.654;2024-01-30T01:10:13;11.75;;;6.78;;
16199;SDS011;8207;52.494;4.654;2024-01-30T01:12:38;11.23;;;6.72;;
16199;SDS011;8207;52.494;4.654;2024-01-30T01:15:04;11.23;;;7.05;;
16199;SDS011;8207;52.494;4.654;2024-01-30T01:17:29;11.45;;;6.80;;
16199;SDS011;8207;52.494;4.654;2024-01-30T01:19:55;10.47;;;6.77;;
16199;SDS011;8207;52.494;4.654;2024-01-30T01:22:20;10.27;;;6.87;;
16199;SDS011;8207;52.494;4.654;2024-01-30T01:24:45;11.47;;;6.93;;
16199;SDS011;8207;52.494;4.654;2024-01-30T01:27:10;9.43;;;6.37;;
16199;SDS011;8207;52.494;4.654;2024-01-30T01:29:36;10.23;;;6.35;;
16199;SDS011;8207;52.494;4.654;2024-01-30T01:32:01;9.87;;;6.27;;
16199;SDS011;8207;52.494;4.654;2024-01-30T01:34:26;11.40;;;6.10;;
16199;SDS011;8207;52.494;4.654;2024-01-30T01:36:52;10.50;;;6.17;;
16199;SDS011;8207;52.494;4.654;2024-01-30T01:39:20;8.93;;;6.05;;
16199;SDS011;8207;52.494;4.654;2024-01-30T01:41:45;9.80;;;6.30;;
16199;SDS011;8207;52.494;4.654;2024-01-30T01:44:10;8.50;;;5.93;;
16199;SDS011;8207;52.494;4.654;2024-01-30T01:46:35;10.13;;;6.23;;
16199;SDS011;8207;52.494;4.654;2024-01-30T01:49:02;10.23;;;5.95;;
16199;SDS011;8207;52.494;4.654;2024-01-30T01:51:27;11.13;;;6.57;;
16199;SDS011;8207;52.494;4.654;2024-01-30T01:53:54;9.60;;;6.15;;
16199;SDS011;8207;52.494;4.654;2024-01-30T01:56:19;10.13;;;6.25;;
16199;SDS011;8207;52.494;4.654;2024-01-30T01:58:45;10.30;;;6.13;;
16199;SDS011;8207;52.494;4.654;2024-01-30T02:01:11;8.98;;;6.28;;
16199;SDS011;8207;52.494;4.654;2024-01-30T02:03:37;8.80;;;6.05;;
16199;SDS011;8207;52.494;4.654;2024-01-30T02:06:03;11.50;;;6.20;;
16199;SDS011;8207;52.494;4.654;2024-01-30T02:08:28;8.18;;;5.65;;
16199;SDS011;8207;52.494;4.654;2024-01-30T02:10:54;9.55;;;5.88;;
16199;SDS011;8207;52.494;4.654;2024-01-30T02:13:20;9.48;;;5.63;;
16199;SDS011;8207;52.494;4.654;2024-01-30T02:15:48;8.57;;;5.72;;
16199;SDS011;8207;52.494;4.654;2024-01-30T02:18:14;8.85;;;6.15;;
16199;SDS011;8207;52.494;4.654;2024-01-30T02:20:39;9.17;;;6.13;;
16199;SDS011;8207;52.494;4.654;2024-01-30T02:23:04;8.57;;;5.40;;
16199;SDS011;8207;52.494;4.654;2024-01-30T02:25:39;9.73;;;5.53;;
16199;SDS011;8207;52.494;4.654;2024-01-30T02:28:09;9.05;;;5.82;;
16199;SDS011;8207;52.494;4.654;2024-01-30T02:30:34;8.88;;;5.65;;
16199;SDS011;8207;52.494;4.654;2024-01-30T02:32:59;8.03;;;5.30;;
16199;SDS011;8207;52.494;4.654;2024-01-30T02:35:25;8.23;;;5.73;;
16199;SDS011;8207;52.494;4.654;2024-01-30T02:37:50;7.80;;;5.53;;
16199;SDS011;8207;52.494;4.654;2024-01-30T02:40:15;8.97;;;5.83;;
16199;SDS011;8207;52.494;4.654;2024-01-30T02:42:40;8.37;;;5.23;;
16199;SDS011;8207;52.494;4.654;2024-01-30T02:45:06;9.20;;;5.63;;
16199;SDS011;8207;52.494;4.654;2024-01-30T02:47:32;8.30;;;5.50;;
16199;SDS011;8207;52.494;4.654;2024-01-30T02:49:57;8.30;;;5.20;;
16199;SDS011;8207;52.494;4.654;2024-01-30T02:52:22;6.77;;;4.97;;
16199;SDS011;8207;52.494;4.654;2024-01-30T02:54:47;7.63;;;5.40;;
16199;SDS011;8207;52.494;4.654;2024-01-30T02:57:12;8.33;;;5.47;;
16199;SDS011;8207;52.494;4.654;2024-01-30T02:59:38;8.83;;;5.13;;
16199;SDS011;8207;52.494;4.654;2024-01-30T03:02:03;8.77;;;5.05;;
16199;SDS011;8207;52.494;4.654;2024-01-30T03:04:28;8.38;;;5.13;;
16199;SDS011;8207;52.494;4.654;2024-01-30T03:06:55;7.65;;;5.03;;
16199;SDS011;8207;52.494;4.654;2024-01-30T03:09:20;7.25;;;4.75;;
16199;SDS011;8207;52.494;4.654;2024-01-30T03:11:45;6.77;;;5.00;;
16199;SDS011;8207;52.494;4.654;2024-01-30T03:14:10;6.60;;;4.75;;
16199;SDS011;8207;52.494;4.654;2024-01-30T03:16:36;8.23;;;5.18;;
16199;SDS011;8207;52.494;4.654;2024-01-30T03:19:01;7.32;;;5.20;;
16199;SDS011;8207;52.494;4.654;2024-01-30T03:21:28;7.18;;;5.03;;
16199;SDS011;8207;52.494;4.654;2024-01-30T03:23:53;7.32;;;4.72;;
16199;SDS011;8207;52.494;4.654;2024-01-30T03:26:18;6.73;;;4.83;;
16199;SDS011;8207;52.494;4.654;2024-01-30T03:28:44;7.23;;;4.77;;
16199;SDS011;8207;52.494;4.654;2024-01-30T03:31:09;7.13;;;4.90;;
16199;SDS011;8207;52.494;4.654;2024-01-30T03:33:34;7.30;;;4.90;;
16199;SDS011;8207;52.494;4.654;2024-01-30T03:36:02;7.27;;;4.60;;
16199;SDS011;8207;52.494;4.654;2024-01-30T03:38:27;7.00;;;4.90;;
16199;SDS011;8207;52.494;4.654;2024-01-30T03:40:53;6.23;;;4.50;;
16199;SDS011;8207;52.494;4.654;2024-01-30T03:43:18;6.55;;;4.65;;
16199;SDS011;8207;52.494;4.654;2024-01-30T03:45:43;7.27;;;4.67;;
16199;SDS011;8207;52.494;4.654;2024-01-30T03:48:08;6.30;;;4.50;;
16199;SDS011;8207;52.494;4.654;2024-01-30T03:50:33;7.57;;;4.60;;
16199;SDS011;8207;52.494;4.654;2024-01-30T03:52:59;7.53;;;4.87;;
16199;SDS011;8207;52.494;4.654;2024-01-30T03:55:24;7.20;;;4.50;;
16199;SDS011;8207;52.494;4.654;2024-01-30T03:57:49;6.80;;;4.43;;
16199;SDS011;8207;52.494;4.654;2024-01-30T04:00:14;6.53;;;4.50;;
16199;SDS011;8207;52.494;4.654;2024-01-30T04:02:39;6.47;;;4.53;;
16199;SDS011;8207;52.494;4.654;2024-01-30T04:05:05;7.28;;;4.65;;
16199;SDS011;8207;52.494;4.654;2024-01-30T04:07:31;6.47;;;4.15;;
16199;SDS011;8207;52.494;4.654;2024-01-30T04:09:57;6.97;;;4.47;;
16199;SDS011;8207;52.494;4.654;2024-01-30T04:12:22;6.33;;;4.40;;
16199;SDS011;8207;52.494;4.654;2024-01-30T04:14:47;7.77;;;4.53;;
16199;SDS011;8207;52.494;4.654;2024-01-30T04:17:12;7.25;;;4.68;;
16199;SDS011;8207;52.494;4.654;2024-01-30T04:19:38;6.75;;;4.55;;
16199;SDS011;8207;52.494;4.654;2024-01-30T04:22:04;5.97;;;4.30;;
16199;SDS011;8207;52.494;4.654;2024-01-30T04:24:29;5.75;;;4.10;;
16199;SDS011;8207;52.494;4.654;2024-01-30T04:26:54;5.73;;;4.23;;
16199;SDS011;8207;52.494;4.654;2024-01-30T04:29:19;6.00;;;4.40;;
16199;SDS011;8207;52.494;4.654;2024-01-30T04:31:45;5.57;;;4.28;;
16199;SDS011;8207;52.494;4.654;2024-01-30T04:34:10;6.93;;;4.27;;
16199;SDS011;8207;52.494;4.654;2024-01-30T04:36:35;6.20;;;4.45;;
16199;SDS011;8207;52.494;4.654;2024-01-30T04:39:00;5.10;;;4.10;;
16199;SDS011;8207;52.494;4.654;2024-01-30T04:41:25;6.27;;;4.37;;
16199;SDS011;8207;52.494;4.654;2024-01-30T04:43:51;5.82;;;4.13;;
16199;SDS011;8207;52.494;4.654;2024-01-30T04:46:16;6.40;;;4.57;;
16199;SDS011;8207;52.494;4.654;2024-01-30T04:48:41;6.55;;;4.13;;
16199;SDS011;8207;52.494;4.654;2024-01-30T04:51:06;6.90;;;4.53;;
16199;SDS011;8207;52.494;4.654;2024-01-30T04:53:32;5.67;;;4.17;;
16199;SDS011;8207;52.494;4.654;2024-01-30T04:55:57;5.38;;;4.18;;
16199;SDS011;8207;52.494;4.654;2024-01-30T04:58:22;6.27;;;4.30;;
16199;SDS011;8207;52.494;4.654;2024-01-30T05:00:47;5.87;;;4.03;;
16199;SDS011;8207;52.494;4.654;2024-01-30T05:03:16;5.75;;;4.03;;
16199;SDS011;8207;52.494;4.654;2024-01-30T05:05:42;5.35;;;4.20;;
16199;SDS011;8207;52.494;4.654;2024-01-30T05:08:07;6.00;;;4.20;;
16199;SDS011;8207;52.494;4.654;2024-01-30T05:10:33;5.75;;;3.80;;
16199;SDS011;8207;52.494;4.654;2024-01-30T05:12:58;5.38;;;4.15;;
16199;SDS011;8207;52.494;4.654;2024-01-30T05:15:23;5.60;;;4.13;;
16199;SDS011;8207;52.494;4.654;2024-01-30T05:17:48;5.77;;;4.00;;
16199;SDS011;8207;52.494;4.654;2024-01-30T05:20:13;5.77;;;4.10;;
16199;SDS011;8207;52.494;4.654;2024-01-30T05:22:39;5.72;;;4.00;;
16199;SDS011;8207;52.494;4.654;2024-01-30T05:25:09;5.20;;;4.00;;
16199;SDS011;8207;52.494;4.654;2024-01-30T05:27:35;6.90;;;4.03;;
16199;SDS011;8207;52.494;4.654;2024-01-30T05:30:00;5.43;;;3.80;;
16199;SDS011;8207;52.494;4.654;2024-01-30T05:32:25;5.10;;;3.90;;
16199;SDS011;8207;52.494;4.654;2024-01-30T05:34:50;5.70;;;3.90;;
16199;SDS011;8207;52.494;4.654;2024-01-30T05:37:16;5.05;;;3.45;;
16199;SDS011;8207;52.494;4.654;2024-01-30T05:39:42;4.88;;;3.63;;
16199;SDS011;8207;52.494;4.654;2024-01-30T05:42:08;5.43;;;3.70;;
16199;SDS011;8207;52.494;4.654;2024-01-30T05:44:33;5.28;;;3.72;;
16199;SDS011;8207;52.494;4.654;2024-01-30T05:46:58;5.27;;;3.70;;
16199;SDS011;8207;52.494;4.654;2024-01-30T05:49:23;5.30;;;4.05;;
16199;SDS011;8207;52.494;4.654;2024-01-30T05:51:48;5.20;;;3.57;;
16199;SDS011;8207;52.494;4.654;2024-01-30T05:54:14;4.77;;;3.70;;
16199;SDS011;8207;52.494;4.654;2024-01-30T05:56:39;4.57;;;3.30;;
16199;SDS011;8207;52.494;4.654;2024-01-30T05:59:04;5.20;;;3.72;;
16199;SDS011;8207;52.494;4.654;2024-01-30T06:01:29;4.72;;;3.47;;
16199;SDS011;8207;52.494;4.654;2024-01-30T06:03:55;4.97;;;3.75;;
16199;SDS011;8207;52.494;4.654;2024-01-30T06:06:20;4.60;;;3.50;;
16199;SDS011;8207;52.494;4.654;2024-01-30T06:08:45;5.18;;;3.65;;
16199;SDS011;8207;52.494;4.654;2024-01-30T06:11:11;5.07;;;3.53;;
16199;SDS011;8207;52.494;4.654;2024-01-30T06:13:37;5.53;;;4.15;;
16199;SDS011;8207;52.494;4.654;2024-01-30T06:16:02;4.40;;;3.30;;
16199;SDS011;8207;52.494;4.654;2024-01-30T06:18:27;6.20;;;3.88;;
16199;SDS011;8207;52.494;4.654;2024-01-30T06:20:54;4.82;;;3.50;;
16199;SDS011;8207;52.494;4.654;2024-01-30T06:23:19;5.73;;;3.93;;
16199;SDS011;8207;52.494;4.654;2024-01-30T06:25:44;4.90;;;3.40;;
16199;SDS011;8207;52.494;4.654;2024-01-30T06:28:10;5.00;;;3.70;;
16199;SDS011;8207;52.494;4.654;2024-01-30T06:30:35;5.72;;;3.50;;
16199;SDS011;8207;52.494;4.654;2024-01-30T06:33:00;5.17;;;3.80;;
16199;SDS011;8207;52.494;4.654;2024-01-30T06:35:25;5.27;;;3.63;;
16199;SDS011;8207;52.494;4.654;2024-01-30T06:37:50;5.13;;;3.50;;
16199;SDS011;8207;52.494;4.654;2024-01-30T06:40:16;4.35;;;3.38;;
16199;SDS011;8207;52.494;4.654;2024-01-30T06:42:41;4.27;;;3.30;;
16199;SDS011;8207;52.494;4.654;2024-01-30T06:45:06;4.78;;;3.40;;
16199;SDS011;8207;52.494;4.654;2024-01-30T06:47:33;4.70;;;3.42;;
16199;SDS011;8207;52.494;4.654;2024-01-30T06:49:58;6.93;;;3.53;;
16199;SDS011;8207;52.494;4.654;2024-01-30T06:52:24;4.75;;;3.28;;
16199;SDS011;8207;52.494;4.654;2024-01-30T06:54:49;6.30;;;3.50;;
16199;SDS011;8207;52.494;4.654;2024-01-30T06:57:14;5.13;;;3.53;;
16199;SDS011;8207;52.494;4.654;2024-01-30T06:59:39;4.80;;;3.50;;
16199;SDS011;8207;52.494;4.654;2024-01-30T07:02:09;6.65;;;3.72;;
16199;SDS011;8207;52.494;4.654;2024-01-30T07:04:34;5.47;;;3.60;;
16199;SDS011;8207;52.494;4.654;2024-01-30T07:07:02;4.88;;;3.20;;
16199;SDS011;8207;52.494;4.654;2024-01-30T07:09:27;5.13;;;3.33;;
16199;SDS011;8207;52.494;4.654;2024-01-30T07:11:53;5.22;;;3.35;;
16199;SDS011;8207;52.494;4.654;2024-01-30T07:14:18;6.03;;;3.55;;
16199;SDS011;8207;52.494;4.654;2024-01-30T07:16:43;5.23;;;3.47;;
16199;SDS011;8207;52.494;4.654;2024-01-30T07:19:08;5.57;;;3.03;;
16199;SDS011;8207;52.494;4.654;2024-01-30T07:21:34;6.80;;;3.28;;
16199;SDS011;8207;52.494;4.654;2024-01-30T07:23:59;4.97;;;3.00;;
16199;SDS011;8207;52.494;4.654;2024-01-30T07:26:24;6.33;;;3.63;;
16199;SDS011;8207;52.494;4.654;2024-01-30T07:28:50;7.90;;;3.95;;
16199;SDS011;8207;52.494;4.654;2024-01-30T07:31:16;5.88;;;3.58;;
16199;SDS011;8207;52.494;4.654;2024-01-30T07:33:41;7.50;;;3.33;;
16199;SDS011;8207;52.494;4.654;2024-01-30T07:36:06;4.77;;;3.07;;
16199;SDS011;8207;52.494;4.654;2024-01-30T07:38:31;4.70;;;3.40;;
16199;SDS011;8207;52.494;4.654;2024-01-30T07:40:56;4.78;;;3.30;;
16199;SDS011;8207;52.494;4.654;2024-01-30T07:43:22;6.63;;;3.80;;
16199;SDS011;8207;52.494;4.654;2024-01-30T07:45:47;5.65;;;3.58;;
16199;SDS011;8207;52.494;4.654;2024-01-30T07:48:12;5.57;;;3.70;;
16199;SDS011;8207;52.494;4.654;2024-01-30T07:50:39;6.75;;;3.78;;
16199;SDS011;8207;52.494;4.654;2024-01-30T07:53:04;6.13;;;3.63;;
16199;SDS011;8207;52.494;4.654;2024-01-30T07:55:29;7.00;;;3.63;;
16199;SDS011;8207;52.494;4.654;2024-01-30T07:57:56;6.10;;;3.42;;
16199;SDS011;8207;52.494;4.654;2024-01-30T08:00:22;7.35;;;3.42;;
16199;SDS011;8207;52.494;4.654;2024-01-30T08:02:53;5.20;;;3.30;;
16199;SDS011;8207;52.494;4.654;2024-01-30T08:05:22;6.50;;;3.47;;
16199;SDS011;8207;52.494;4.654;2024-01-30T08:07:48;7.15;;;3.60;;
16199;SDS011;8207;52.494;4.654;2024-01-30T08:10:13;8.77;;;3.95;;
16199;SDS011;8207;52.494;4.654;2024-01-30T08:12:39;5.40;;;3.40;;
16199;SDS011;8207;52.494;4.654;2024-01-30T08:15:04;6.78;;;3.53;;
16199;SDS011;8207;52.494;4.654;2024-01-30T08:17:30;5.60;;;3.40;;
16199;SDS011;8207;52.494;4.654;2024-01-30T08:19:55;6.13;;;3.63;;
16199;SDS011;8207;52.494;4.654;2024-01-30T08:22:20;5.77;;;3.40;;
16199;SDS011;8207;52.494;4.654;2024-01-30T08:24:45;6.07;;;3.60;;
16199;SDS011;8207;52.494;4.654;2024-01-30T08:27:10;6.80;;;3.40;;
16199;SDS011;8207;52.494;4.654;2024-01-30T08:29:37;6.65;;;3.47;;
16199;SDS011;8207;52.494;4.654;2024-01-30T08:32:02;7.87;;;3.63;;
16199;SDS011;8207;52.494;4.654;2024-01-30T08:34:27;6.25;;;3.63;;
16199;SDS011;8207;52.494;4.654;2024-01-30T08:36:52;6.63;;;3.70;;
16199;SDS011;8207;52.494;4.654;2024-01-30T08:39:18;7.15;;;3.60;;
16199;SDS011;8207;52.494;4.654;2024-01-30T08:41:43;4.82;;;3.28;;
16199;SDS011;8207;52.494;4.654;2024-01-30T08:44:08;7.00;;;3.40;;
16199;SDS011;8207;52.494;4.654;2024-01-30T08:46:35;5.65;;;3.20;;
16199;SDS011;8207;52.494;4.654;2024-01-30T08:49:01;5.45;;;3.30;;
16199;SDS011;8207;52.494;4.654;2024-01-30T08:51:26;5.57;;;3.27;;
16199;SDS011;8207;52.494;4.654;2024-01-30T08:53:51;6.00;;;3.40;;
16199;SDS011;8207;52.494;4.654;2024-01-30T08:56:17;5.20;;;3.20;;
16199;SDS011;8207;52.494;4.654;2024-01-30T08:58:43;5.32;;;3.17;;
16199;SDS011;8207;52.494;4.654;2024-01-30T09:01:08;6.53;;;3.30;;
16199;SDS011;8207;52.494;4.654;2024-01-30T09:03:33;6.32;;;3.83;;
16199;SDS011;8207;52.494;4.654;2024-01-30T09:05:59;6.30;;;3.45;;
16199;SDS011;8207;52.494;4.654;2024-01-30T09:08:24;6.57;;;3.08;;
16199;SDS011;8207;52.494;4.654;2024-01-30T09:10:49;7.53;;;2.90;;
16199;SDS011;8207;52.494;4.654;2024-01-30T09:13:15;6.38;;;3.53;;
16199;SDS011;8207;52.494;4.654;2024-01-30T09:15:41;5.80;;;3.33;;
16199;SDS011;8207;52.494;4.654;2024-01-30T09:18:07;7.03;;;3.60;;
16199;SDS011;8207;52.494;4.654;2024-01-30T09:20:32;6.57;;;3.45;;
16199;SDS011;8207;52.494;4.654;2024-01-30T09:22:57;6.72;;;3.03;;
16199;SDS011;8207;52.494;4.654;2024-01-30T09:25:23;5.03;;;2.90;;
16199;SDS011;8207;52.494;4.654;2024-01-30T09:27:48;4.80;;;2.87;;
16199;SDS011;8207;52.494;4.654;2024-01-30T09:30:14;6.40;;;3.00;;
16199;SDS011;8207;52.494;4.654;2024-01-30T09:32:39;4.57;;;2.70;;
16199;SDS011;8207;52.494;4.654;2024-01-30T09:35:04;5.47;;;2.88;;
16199;SDS011;8207;52.494;4.654;2024-01-30T09:37:30;6.80;;;3.03;;
16199;SDS011;8207;52.494;4.654;2024-01-30T09:39:55;5.70;;;2.70;;
16199;SDS011;8207;52.494;4.654;2024-01-30T09:42:28;6.85;;;2.92;;
16199;SDS011;8207;52.494;4.654;2024-01-30T09:44:56;6.10;;;2.60;;
16199;SDS011;8207;52.494;4.654;2024-01-30T09:47:22;6.07;;;2.67;;
16199;SDS011;8207;52.494;4.654;2024-01-30T09:49:47;4.53;;;2.65;;
16199;SDS011;8207;52.494;4.654;2024-01-30T09:52:12;4.68;;;2.28;;
16199;SDS011;8207;52.494;4.654;2024-01-30T09:54:38;4.32;;;2.30;;
16199;SDS011;8207;52.494;4.654;2024-01-30T09:57:03;7.47;;;2.47;;
16199;SDS011;8207;52.494;4.654;2024-01-30T09:59:29;4.65;;;2.50;;
16199;SDS011;8207;52.494;4.654;2024-01-30T10:01:54;5.20;;;2.55;;
16199;SDS011;8207;52.494;4.654;2024-01-30T10:04:19;5.43;;;2.53;;
16199;SDS011;8207;52.494;4.654;2024-01-30T10:06:45;4.22;;;2.40;;
16199;SDS011;8207;52.494;4.654;2024-01-30T10:09:11;6.25;;;2.53;;
16199;SDS011;8207;52.494;4.654;2024-01-30T10:11:36;5.77;;;2.50;;
16199;SDS011;8207;52.494;4.654;2024-01-30T10:14:02;5.05;;;2.45;;
16199;SDS011;8207;52.494;4.654;2024-01-30T10:16:27;5.30;;;2.60;;
16199;SDS011;8207;52.494;4.654;2024-01-30T10:18:52;4.93;;;2.40;;
16199;SDS011;8207;52.494;4.654;2024-01-30T10:21:18;6.07;;;2.37;;
16199;SDS011;8207;52.494;4.654;2024-01-30T10:23:43;5.17;;;2.40;;
16199;SDS011;8207;52.494;4.654;2024-01-30T10:26:08;5.30;;;2.25;;
16199;SDS011;8207;52.494;4.654;2024-01-30T10:28:34;4.72;;;2.10;;
16199;SDS011;8207;52.494;4.654;2024-01-30T10:30:59;4.22;;;2.05;;
16199;SDS011;8207;52.494;4.654;2024-01-30T10:33:25;4.68;;;2.25;;
16199;SDS011;8207;52.494;4.654;2024-01-30T10:35:51;3.92;;;2.13;;
16199;SDS011;8207;52.494;4.654;2024-01-30T10:38:16;4.45;;;2.13;;
16199;SDS011;8207;52.494;4.654;2024-01-30T10:40:44;5.07;;;2.17;;
16199;SDS011;8207;52.494;4.654;2024-01-30T10:43:10;6.35;;;2.30;;
16199;SDS011;8207;52.494;4.654;2024-01-30T10:45:36;6.82;;;2.20;;
16199;SDS011;8207;52.494;4.654;2024-01-30T10:48:04;5.05;;;2.10;;
16199;SDS011;8207;52.494;4.654;2024-01-30T10:50:30;5.28;;;2.00;;
16199;SDS011;8207;52.494;4.654;2024-01-30T10:52:55;5.22;;;2.20;;
16199;SDS011;8207;52.494;4.654;2024-01-30T10:55:22;4.53;;;1.90;;
16199;SDS011;8207;52.494;4.654;2024-01-30T10:57:48;5.80;;;2.25;;
16199;SDS011;8207;52.494;4.654;2024-01-30T11:00:14;3.58;;;2.17;;
16199;SDS011;8207;52.494;4.654;2024-01-30T11:02:43;5.07;;;1.88;;
16199;SDS011;8207;52.494;4.654;2024-01-30T11:05:09;4.45;;;2.15;;
16199;SDS011;8207;52.494;4.654;2024-01-30T11:07:35;5.40;;;1.90;;
16199;SDS011;8207;52.494;4.654;2024-01-30T11:10:01;5.13;;;2.22;;
16199;SDS011;8207;52.494;4.654;2024-01-30T11:12:27;5.53;;;2.20;;
16199;SDS011;8207;52.494;4.654;2024-01-30T11:15:02;4.97;;;2.00;;
16199;SDS011;8207;52.494;4.654;2024-01-30T11:17:38;4.55;;;1.77;;
16199;SDS011;8207;52.494;4.654;2024-01-30T11:20:04;4.78;;;1.95;;
16199;SDS011;8207;52.494;4.654;2024-01-30T11:22:30;4.82;;;1.90;;
16199;SDS011;8207;52.494;4.654;2024-01-30T11:24:55;3.55;;;1.50;;
16199;SDS011;8207;52.494;4.654;2024-01-30T11:27:20;4.70;;;1.93;;
16199;SDS011;8207;52.494;4.654;2024-01-30T11:29:49;5.15;;;2.00;;
16199;SDS011;8207;52.494;4.654;2024-01-30T11:32:16;4.25;;;1.95;;
16199;SDS011;8207;52.494;4.654;2024-01-30T11:34:47;3.75;;;1.80;;
16199;SDS011;8207;52.494;4.654;2024-01-30T11:37:13;4.90;;;2.00;;
16199;SDS011;8207;52.494;4.654;2024-01-30T11:39:38;3.72;;;1.63;;
16199;SDS011;8207;52.494;4.654;2024-01-30T11:42:06;4.72;;;1.80;;
16199;SDS011;8207;52.494;4.654;2024-01-30T11:44:32;4.65;;;1.80;;
16199;SDS011;8207;52.494;4.654;2024-01-30T11:46:58;4.83;;;1.90;;
16199;SDS011;8207;52.494;4.654;2024-01-30T11:49:23;4.00;;;1.65;;
16199;SDS011;8207;52.494;4.654;2024-01-30T11:51:48;4.97;;;1.85;;
16199;SDS011;8207;52.494;4.654;2024-01-30T11:54:14;4.80;;;1.88;;
16199;SDS011;8207;52.494;4.654;2024-01-30T11:56:39;5.45;;;1.90;;
16199;SDS011;8207;52.494;4.654;2024-01-30T11:59:05;5.23;;;1.83;;
16199;SDS011;8207;52.494;4.654;2024-01-30T12:01:30;4.22;;;1.58;;
16199;SDS011;8207;52.494;4.654;2024-01-30T12:03:56;4.18;;;1.60;;
16199;SDS011;8207;52.494;4.654;2024-01-30T12:06:22;4.65;;;1.58;;
16199;SDS011;8207;52.494;4.654;2024-01-30T12:11:22;4.25;;;1.63;;
16199;SDS011;8207;52.494;4.654;2024-01-30T12:13:47;4.43;;;1.53;;
16199;SDS011;8207;52.494;4.654;2024-01-30T12:16:12;4.63;;;1.60;;
16199;SDS011;8207;52.494;4.654;2024-01-30T12:18:38;4.30;;;1.58;;
16199;SDS011;8207;52.494;4.654;2024-01-30T12:21:03;4.17;;;1.63;;
16199;SDS011;8207;52.494;4.654;2024-01-30T12:23:29;4.70;;;1.75;;
16199;SDS011;8207;52.494;4.654;2024-01-30T12:25:55;5.03;;;1.70;;
16199;SDS011;8207;52.494;4.654;2024-01-30T12:28:20;4.80;;;1.43;;
16199;SDS011;8207;52.494;4.654;2024-01-30T12:30:45;4.82;;;1.50;;
16199;SDS011;8207;52.494;4.654;2024-01-30T12:33:15;4.40;;;1.60;;
16199;SDS011;8207;52.494;4.654;2024-01-30T12:35:41;5.47;;;1.50;;
16199;SDS011;8207;52.494;4.654;2024-01-30T12:38:10;4.43;;;1.60;;
16199;SDS011;8207;52.494;4.654;2024-01-30T12:40:35;3.83;;;1.47;;
16199;SDS011;8207;52.494;4.654;2024-01-30T12:43:00;3.83;;;1.43;;
16199;SDS011;8207;52.494;4.654;2024-01-30T12:45:26;4.43;;;1.60;;
16199;SDS011;8207;52.494;4.654;2024-01-30T12:47:51;4.57;;;1.50;;
16199;SDS011;8207;52.494;4.654;2024-01-30T12:50:16;4.72;;;1.70;;
16199;SDS011;8207;52.494;4.654;2024-01-30T12:52:42;4.47;;;1.50;;
16199;SDS011;8207;52.494;4.654;2024-01-30T12:55:08;4.63;;;1.70;;
16199;SDS011;8207;52.494;4.654;2024-01-30T12:57:33;4.83;;;1.60;;
16199;SDS011;8207;52.494;4.654;2024-01-30T12:59:58;5.27;;;1.70;;
16199;SDS011;8207;52.494;4.654;2024-01-30T13:02:23;4.63;;;1.63;;
16199;SDS011;8207;52.494;4.654;2024-01-30T13:04:49;3.70;;;1.40;;
16199;SDS011;8207;52.494;4.654;2024-01-30T13:07:14;3.25;;;1.45;;
16199;SDS011;8207;52.494;4.654;2024-01-30T13:09:39;4.63;;;1.53;;
16199;SDS011;8207;52.494;4.654;2024-01-30T13:12:05;4.88;;;1.60;;
16199;SDS011;8207;52.494;4.654;2024-01-30T13:14:30;5.50;;;1.67;;
16199;SDS011;8207;52.494;4.654;2024-01-30T13:16:55;4.35;;;1.45;;
16199;SDS011;8207;52.494;4.654;2024-01-30T13:19:20;4.07;;;1.63;;
16199;SDS011;8207;52.494;4.654;2024-01-30T13:21:46;4.55;;;1.40;;
16199;SDS011;8207;52.494;4.654;2024-01-30T13:24:12;3.80;;;1.60;;
16199;SDS011;8207;52.494;4.654;2024-01-30T13:26:37;4.28;;;1.55;;
16199;SDS011;8207;52.494;4.654;2024-01-30T13:29:03;3.97;;;1.50;;
16199;SDS011;8207;52.494;4.654;2024-01-30T13:31:28;3.75;;;1.50;;
16199;SDS011;8207;52.494;4.654;2024-01-30T13:33:54;4.75;;;1.50;;
16199;SDS011;8207;52.494;4.654;2024-01-30T13:36:19;4.57;;;1.33;;
16199;SDS011;8207;52.494;4.654;2024-01-30T13:38:44;4.15;;;1.48;;
16199;SDS011;8207;52.494;4.654;2024-01-30T13:41:10;4.20;;;1.50;;
16199;SDS011;8207;52.494;4.654;2024-01-30T13:43:35;3.23;;;1.40;;
16199;SDS011;8207;52.494;4.654;2024-01-30T13:46:00;4.17;;;1.47;;
16199;SDS011;8207;52.494;4.654;2024-01-30T13:48:25;5.15;;;1.27;;
16199;SDS011;8207;52.494;4.654;2024-01-30T13:50:51;3.08;;;1.25;;
16199;SDS011;8207;52.494;4.654;2024-01-30T13:53:16;3.63;;;1.40;;
16199;SDS011;8207;52.494;4.654;2024-01-30T13:55:41;3.85;;;1.40;;
16199;SDS011;8207;52.494;4.654;2024-01-30T13:58:06;3.23;;;1.33;;
16199;SDS011;8207;52.494;4.654;2024-01-30T14:00:32;3.92;;;1.38;;
16199;SDS011;8207;52.494;4.654;2024-01-30T14:02:58;3.83;;;1.30;;
16199;SDS011;8207;52.494;4.654;2024-01-30T14:05:24;3.20;;;1.38;;
16199;SDS011;8207;52.494;4.654;2024-01-30T14:07:49;3.65;;;1.27;;
16199;SDS011;8207;52.494;4.654;2024-01-30T14:10:15;3.33;;;1.20;;
16199;SDS011;8207;52.494;4.654;2024-01-30T14:12:41;5.28;;;1.30;;
16199;SDS011;8207;52.494;4.654;2024-01-30T14:15:08;4.45;;;1.40;;
16199;SDS011;8207;52.494;4.654;2024-01-30T14:17:38;3.63;;;1.13;;
16199;SDS011;8207;52.494;4.654;2024-01-30T14:20:05;4.43;;;1.27;;
16199;SDS011;8207;52.494;4.654;2024-01-30T14:22:33;3.28;;;1.20;;
16199;SDS011;8207;52.494;4.654;2024-01-30T14:24:58;3.65;;;1.30;;
16199;SDS011;8207;52.494;4.654;2024-01-30T14:27:23;2.97;;;1.15;;
16199;SDS011;8207;52.494;4.654;2024-01-30T14:29:49;2.87;;;1.20;;
16199;SDS011;8207;52.494;4.654;2024-01-30T14:32:14;3.33;;;1.30;;
16199;SDS011;8207;52.494;4.654;2024-01-30T14:34:40;3.25;;;1.25;;
16199;SDS011;8207;52.494;4.654;2024-01-30T14:37:06;3.40;;;1.30;;
16199;SDS011;8207;52.494;4.654;2024-01-30T14:39:32;4.97;;;1.50;;
16199;SDS011;8207;52.494;4.654;2024-01-30T14:41:57;3.60;;;1.20;;
16199;SDS011;8207;52.494;4.654;2024-01-30T14:44:23;2.70;;;1.20;;
16199;SDS011;8207;52.494;4.654;2024-01-30T14:46:48;4.03;;;1.40;;
16199;SDS011;8207;52.494;4.654;2024-01-30T14:49:13;4.28;;;1.90;;
16199;SDS011;8207;52.494;4.654;2024-01-30T14:51:40;5.07;;;1.90;;
16199;SDS011;8207;52.494;4.654;2024-01-30T14:54:05;2.50;;;1.50;;